sensor_id;sensor_type;location;lat;lon;timestamp;P1;durP1;ratioP1;P2;durP2;ratioP2
59790;SDS011;47431;51.640;5.554;2023-10-19T00:00:46;25.08;;;19.55;;
59790;SDS011;47431;51.640;5.554;2023-10-19T00:03:14;24.25;;;18.80;;
59790;SDS011;47431;51.640;5.554;2023-10-19T00:05:41;26.77;;;19.23;;
59790;SDS011;47431;51.640;5.554;2023-10-19T00:08:06;25.88;;;19.52;;
59790;SDS011;47431;51.640;5.554;2023-10-19T00:10:53;25.85;;;19.08;;
59790;SDS011;47431;51.640;5.554;2023-10-19T00:13:35;24.13;;;17.88;;
59790;SDS011;47431;51.640;5.554;2023-10-19T00:16:03;30.83;;;20.95;;
59790;SDS011;47431;51.640;5.554;2023-10-19T00:18:48;24.80;;;17.88;;
59790;SDS011;47431;51.640;5.554;2023-10-19T00:21:14;29.17;;;18.25;;
59790;SDS011;47431;51.640;5.554;2023-10-19T00:23:55;26.77;;;19.83;;
59790;SDS011;47431;51.640;5.554;2023-10-19T00:26:22;22.33;;;17.52;;
59790;SDS011;47431;51.640;5.554;2023-10-19T00:28:55;26.92;;;18.63;;
59790;SDS011;47431;51.640;5.554;2023-10-19T00:31:22;24.10;;;16.85;;
59790;SDS011;47431;51.640;5.554;2023-10-19T00:33:48;23.05;;;17.50;;
59790;SDS011;47431;51.640;5.554;2023-10-19T00:36:16;22.58;;;18.25;;
59790;SDS011;47431;51.640;5.554;2023-10-19T00:38:45;22.60;;;17.75;;
59790;SDS011;47431;51.640;5.554;2023-10-19T00:41:15;23.13;;;18.33;;
59790;SDS011;47431;51.640;5.554;2023-10-19T00:43:49;27.50;;;17.98;;
59790;SDS011;47431;51.640;5.554;2023-10-19T00:46:16;25.20;;;18.77;;
59790;SDS011;47431;51.640;5.554;2023-10-19T00:51:14;25.27;;;17.55;;
59790;SDS011;47431;51.640;5.554;2023-10-19T00:54:05;27.75;;;20.13;;
59790;SDS011;47431;51.640;5.554;2023-10-19T00:56:40;24.13;;;18.00;;
59790;SDS011;47431;51.640;5.554;2023-10-19T00:59:11;27.70;;;17.95;;
59790;SDS011;47431;51.640;5.554;2023-10-19T01:01:44;28.73;;;17.23;;
59790;SDS011;47431;51.640;5.554;2023-10-19T01:04:13;29.50;;;18.95;;
59790;SDS011;47431;51.640;5.554;2023-10-19T01:06:45;28.23;;;18.65;;
59790;SDS011;47431;51.640;5.554;2023-10-19T01:09:24;21.67;;;16.85;;
59790;SDS011;47431;51.640;5.554;2023-10-19T01:11:52;23.83;;;17.83;;
59790;SDS011;47431;51.640;5.554;2023-10-19T01:14:21;24.00;;;17.67;;
59790;SDS011;47431;51.640;5.554;2023-10-19T01:16:52;22.77;;;17.00;;
59790;SDS011;47431;51.640;5.554;2023-10-19T01:19:21;23.25;;;16.63;;
59790;SDS011;47431;51.640;5.554;2023-10-19T01:21:52;20.00;;;14.90;;
59790;SDS011;47431;51.640;5.554;2023-10-19T01:24:21;21.48;;;15.68;;
59790;SDS011;47431;51.640;5.554;2023-10-19T01:27:09;24.67;;;17.17;;
59790;SDS011;47431;51.640;5.554;2023-10-19T01:29:35;19.60;;;15.13;;
59790;SDS011;47431;51.640;5.554;2023-10-19T01:32:03;22.85;;;16.05;;
59790;SDS011;47431;51.640;5.554;2023-10-19T01:34:33;25.55;;;16.17;;
59790;SDS011;47431;51.640;5.554;2023-10-19T01:36:59;20.77;;;15.98;;
59790;SDS011;47431;51.640;5.554;2023-10-19T01:39:29;24.52;;;16.73;;
59790;SDS011;47431;51.640;5.554;2023-10-19T01:42:01;22.83;;;15.68;;
59790;SDS011;47431;51.640;5.554;2023-10-19T01:44:29;21.98;;;15.70;;
59790;SDS011;47431;51.640;5.554;2023-10-19T01:46:55;25.08;;;15.20;;
59790;SDS011;47431;51.640;5.554;2023-10-19T01:49:21;18.58;;;14.82;;
59790;SDS011;47431;51.640;5.554;2023-10-19T01:51:55;25.15;;;14.55;;
59790;SDS011;47431;51.640;5.554;2023-10-19T01:54:21;18.85;;;15.20;;
59790;SDS011;47431;51.640;5.554;2023-10-19T01:56:50;24.55;;;15.40;;
59790;SDS011;47431;51.640;5.554;2023-10-19T01:59:20;21.17;;;14.75;;
59790;SDS011;47431;51.640;5.554;2023-10-19T02:01:47;21.95;;;14.18;;
59790;SDS011;47431;51.640;5.554;2023-10-19T02:04:14;22.85;;;14.20;;
59790;SDS011;47431;51.640;5.554;2023-10-19T02:06:39;23.13;;;14.50;;
59790;SDS011;47431;51.640;5.554;2023-10-19T02:11:51;21.58;;;13.57;;
59790;SDS011;47431;51.640;5.554;2023-10-19T02:14:18;19.40;;;13.75;;
59790;SDS011;47431;51.640;5.554;2023-10-19T02:16:48;21.10;;;14.57;;
59790;SDS011;47431;51.640;5.554;2023-10-19T02:19:22;20.17;;;14.77;;
59790;SDS011;47431;51.640;5.554;2023-10-19T02:21:48;20.20;;;13.63;;
59790;SDS011;47431;51.640;5.554;2023-10-19T02:24:17;15.57;;;11.48;;
59790;SDS011;47431;51.640;5.554;2023-10-19T02:26:43;22.52;;;13.38;;
59790;SDS011;47431;51.640;5.554;2023-10-19T02:29:10;15.55;;;10.90;;
59790;SDS011;47431;51.640;5.554;2023-10-19T02:31:39;17.83;;;11.25;;
59790;SDS011;47431;51.640;5.554;2023-10-19T02:34:09;19.08;;;11.90;;
59790;SDS011;47431;51.640;5.554;2023-10-19T02:36:37;18.27;;;12.02;;
59790;SDS011;47431;51.640;5.554;2023-10-19T02:39:05;19.15;;;10.65;;
59790;SDS011;47431;51.640;5.554;2023-10-19T02:41:38;18.27;;;9.50;;
59790;SDS011;47431;51.640;5.554;2023-10-19T02:44:07;20.17;;;10.02;;
59790;SDS011;47431;51.640;5.554;2023-10-19T02:46:35;15.40;;;8.43;;
59790;SDS011;47431;51.640;5.554;2023-10-19T02:49:07;16.50;;;8.23;;
59790;SDS011;47431;51.640;5.554;2023-10-19T02:51:36;16.70;;;8.52;;
59790;SDS011;47431;51.640;5.554;2023-10-19T02:54:02;15.32;;;7.55;;
59790;SDS011;47431;51.640;5.554;2023-10-19T02:56:28;13.45;;;7.45;;
59790;SDS011;47431;51.640;5.554;2023-10-19T02:58:56;18.42;;;6.22;;
59790;SDS011;47431;51.640;5.554;2023-10-19T03:01:41;10.18;;;5.50;;
59790;SDS011;47431;51.640;5.554;2023-10-19T03:04:09;9.00;;;5.03;;
59790;SDS011;47431;51.640;5.554;2023-10-19T03:06:37;10.88;;;4.78;;
59790;SDS011;47431;51.640;5.554;2023-10-19T03:09:04;18.92;;;4.75;;
59790;SDS011;47431;51.640;5.554;2023-10-19T03:11:38;8.07;;;4.05;;
59790;SDS011;47431;51.640;5.554;2023-10-19T03:14:05;9.80;;;4.03;;
59790;SDS011;47431;51.640;5.554;2023-10-19T03:16:31;12.07;;;4.57;;
59790;SDS011;47431;51.640;5.554;2023-10-19T03:18:57;15.27;;;4.88;;
59790;SDS011;47431;51.640;5.554;2023-10-19T03:21:22;10.98;;;3.92;;
59790;SDS011;47431;51.640;5.554;2023-10-19T03:23:57;12.65;;;3.67;;
59790;SDS011;47431;51.640;5.554;2023-10-19T03:26:26;12.77;;;3.80;;
59790;SDS011;47431;51.640;5.554;2023-10-19T03:29:02;10.13;;;4.13;;
59790;SDS011;47431;51.640;5.554;2023-10-19T03:31:32;16.70;;;4.07;;
59790;SDS011;47431;51.640;5.554;2023-10-19T03:34:02;9.63;;;3.45;;
59790;SDS011;47431;51.640;5.554;2023-10-19T03:36:31;9.65;;;3.50;;
59790;SDS011;47431;51.640;5.554;2023-10-19T03:38:57;12.63;;;3.90;;
59790;SDS011;47431;51.640;5.554;2023-10-19T03:41:29;7.97;;;3.67;;
59790;SDS011;47431;51.640;5.554;2023-10-19T03:44:00;10.75;;;4.03;;
59790;SDS011;47431;51.640;5.554;2023-10-19T03:46:26;11.65;;;4.68;;
59790;SDS011;47431;51.640;5.554;2023-10-19T03:49:02;13.98;;;5.45;;
59790;SDS011;47431;51.640;5.554;2023-10-19T03:51:35;10.40;;;4.82;;
59790;SDS011;47431;51.640;5.554;2023-10-19T03:54:23;10.05;;;5.88;;
59790;SDS011;47431;51.640;5.554;2023-10-19T03:56:50;12.23;;;6.60;;
59790;SDS011;47431;51.640;5.554;2023-10-19T03:59:16;10.77;;;6.10;;
59790;SDS011;47431;51.640;5.554;2023-10-19T04:01:42;13.32;;;6.32;;
59790;SDS011;47431;51.640;5.554;2023-10-19T04:04:08;9.27;;;6.30;;
59790;SDS011;47431;51.640;5.554;2023-10-19T04:06:37;10.48;;;6.18;;
59790;SDS011;47431;51.640;5.554;2023-10-19T04:09:03;13.95;;;6.47;;
59790;SDS011;47431;51.640;5.554;2023-10-19T04:11:31;12.00;;;6.38;;
59790;SDS011;47431;51.640;5.554;2023-10-19T04:13:59;13.43;;;7.18;;
59790;SDS011;47431;51.640;5.554;2023-10-19T04:16:28;13.60;;;7.97;;
59790;SDS011;47431;51.640;5.554;2023-10-19T04:18:56;12.30;;;7.53;;
59790;SDS011;47431;51.640;5.554;2023-10-19T04:21:23;12.70;;;7.57;;
59790;SDS011;47431;51.640;5.554;2023-10-19T04:23:48;13.95;;;7.72;;
59790;SDS011;47431;51.640;5.554;2023-10-19T04:26:14;14.93;;;7.20;;
59790;SDS011;47431;51.640;5.554;2023-10-19T04:28:43;15.57;;;8.60;;
59790;SDS011;47431;51.640;5.554;2023-10-19T04:31:18;12.32;;;7.60;;
59790;SDS011;47431;51.640;5.554;2023-10-19T04:33:44;14.43;;;7.70;;
59790;SDS011;47431;51.640;5.554;2023-10-19T04:36:14;12.10;;;6.90;;
59790;SDS011;47431;51.640;5.554;2023-10-19T04:38:40;14.68;;;6.63;;
59790;SDS011;47431;51.640;5.554;2023-10-19T04:41:07;23.05;;;7.15;;
59790;SDS011;47431;51.640;5.554;2023-10-19T04:43:36;17.90;;;8.65;;
59790;SDS011;47431;51.640;5.554;2023-10-19T04:46:06;10.98;;;6.60;;
59790;SDS011;47431;51.640;5.554;2023-10-19T04:48:39;15.27;;;7.25;;
59790;SDS011;47431;51.640;5.554;2023-10-19T04:51:05;20.92;;;6.95;;
59790;SDS011;47431;51.640;5.554;2023-10-19T04:53:32;11.60;;;7.53;;
59790;SDS011;47431;51.640;5.554;2023-10-19T04:55:58;13.60;;;7.45;;
59790;SDS011;47431;51.640;5.554;2023-10-19T04:58:25;14.05;;;6.70;;
59790;SDS011;47431;51.640;5.554;2023-10-19T05:00:53;10.23;;;6.35;;
59790;SDS011;47431;51.640;5.554;2023-10-19T05:03:18;9.85;;;5.68;;
59790;SDS011;47431;51.640;5.554;2023-10-19T05:05:44;13.65;;;6.45;;
59790;SDS011;47431;51.640;5.554;2023-10-19T05:08:10;18.50;;;6.40;;
59790;SDS011;47431;51.640;5.554;2023-10-19T05:10:36;11.32;;;6.32;;
59790;SDS011;47431;51.640;5.554;2023-10-19T05:13:02;9.70;;;6.18;;
59790;SDS011;47431;51.640;5.554;2023-10-19T05:15:28;13.90;;;5.07;;
59790;SDS011;47431;51.640;5.554;2023-10-19T05:17:54;13.02;;;5.13;;
59790;SDS011;47431;51.640;5.554;2023-10-19T05:20:19;13.80;;;6.43;;
59790;SDS011;47431;51.640;5.554;2023-10-19T05:22:46;11.07;;;4.78;;
59790;SDS011;47431;51.640;5.554;2023-10-19T05:25:11;11.85;;;5.85;;
59790;SDS011;47431;51.640;5.554;2023-10-19T05:27:37;16.67;;;5.18;;
59790;SDS011;47431;51.640;5.554;2023-10-19T05:30:03;13.30;;;5.13;;
59790;SDS011;47431;51.640;5.554;2023-10-19T05:32:29;13.77;;;4.50;;
59790;SDS011;47431;51.640;5.554;2023-10-19T05:34:55;13.13;;;4.82;;
59790;SDS011;47431;51.640;5.554;2023-10-19T05:37:22;11.98;;;4.70;;
59790;SDS011;47431;51.640;5.554;2023-10-19T05:39:47;13.48;;;6.07;;
59790;SDS011;47431;51.640;5.554;2023-10-19T05:42:16;11.45;;;4.13;;
59790;SDS011;47431;51.640;5.554;2023-10-19T05:44:43;8.77;;;4.03;;
59790;SDS011;47431;51.640;5.554;2023-10-19T05:47:08;13.85;;;4.88;;
59790;SDS011;47431;51.640;5.554;2023-10-19T05:49:34;9.40;;;4.25;;
59790;SDS011;47431;51.640;5.554;2023-10-19T05:51:59;8.95;;;3.55;;
59790;SDS011;47431;51.640;5.554;2023-10-19T05:54:25;13.82;;;4.65;;
59790;SDS011;47431;51.640;5.554;2023-10-19T05:56:50;10.90;;;4.72;;
59790;SDS011;47431;51.640;5.554;2023-10-19T05:59:17;13.80;;;5.65;;
59790;SDS011;47431;51.640;5.554;2023-10-19T06:01:42;22.88;;;5.18;;
59790;SDS011;47431;51.640;5.554;2023-10-19T06:04:11;9.27;;;4.88;;
59790;SDS011;47431;51.640;5.554;2023-10-19T06:06:37;11.20;;;3.63;;
59790;SDS011;47431;51.640;5.554;2023-10-19T06:09:04;11.50;;;4.25;;
59790;SDS011;47431;51.640;5.554;2023-10-19T06:11:33;21.67;;;4.90;;
59790;SDS011;47431;51.640;5.554;2023-10-19T06:13:59;12.68;;;4.60;;
59790;SDS011;47431;51.640;5.554;2023-10-19T06:16:25;27.45;;;5.10;;
59790;SDS011;47431;51.640;5.554;2023-10-19T06:18:50;16.33;;;5.20;;
59790;SDS011;47431;51.640;5.554;2023-10-19T06:21:19;24.85;;;4.60;;
59790;SDS011;47431;51.640;5.554;2023-10-19T06:23:44;12.90;;;4.28;;
59790;SDS011;47431;51.640;5.554;2023-10-19T06:26:10;7.80;;;4.15;;
59790;SDS011;47431;51.640;5.554;2023-10-19T06:28:37;14.15;;;4.75;;
59790;SDS011;47431;51.640;5.554;2023-10-19T06:31:04;10.70;;;3.97;;
59790;SDS011;47431;51.640;5.554;2023-10-19T06:33:30;10.50;;;4.47;;
59790;SDS011;47431;51.640;5.554;2023-10-19T06:35:58;19.05;;;4.95;;
59790;SDS011;47431;51.640;5.554;2023-10-19T06:38:24;14.75;;;4.38;;
59790;SDS011;47431;51.640;5.554;2023-10-19T06:40:51;10.65;;;4.25;;
59790;SDS011;47431;51.640;5.554;2023-10-19T06:43:16;11.82;;;3.95;;
59790;SDS011;47431;51.640;5.554;2023-10-19T06:45:43;11.27;;;4.70;;
59790;SDS011;47431;51.640;5.554;2023-10-19T06:48:09;13.88;;;4.18;;
59790;SDS011;47431;51.640;5.554;2023-10-19T06:50:36;24.17;;;5.63;;
59790;SDS011;47431;51.640;5.554;2023-10-19T06:53:02;11.93;;;4.25;;
59790;SDS011;47431;51.640;5.554;2023-10-19T06:55:30;17.95;;;5.43;;
59790;SDS011;47431;51.640;5.554;2023-10-19T06:57:55;18.65;;;7.07;;
59790;SDS011;47431;51.640;5.554;2023-10-19T07:00:22;17.75;;;4.28;;
59790;SDS011;47431;51.640;5.554;2023-10-19T07:02:51;14.65;;;5.00;;
59790;SDS011;47431;51.640;5.554;2023-10-19T07:05:18;17.27;;;5.38;;
59790;SDS011;47431;51.640;5.554;2023-10-19T07:07:49;20.20;;;6.17;;
59790;SDS011;47431;51.640;5.554;2023-10-19T07:10:17;14.32;;;5.47;;
59790;SDS011;47431;51.640;5.554;2023-10-19T07:12:48;17.58;;;5.32;;
59790;SDS011;47431;51.640;5.554;2023-10-19T07:15:16;23.40;;;6.15;;
59790;SDS011;47431;51.640;5.554;2023-10-19T07:17:47;18.25;;;6.03;;
59790;SDS011;47431;51.640;5.554;2023-10-19T07:20:14;13.20;;;5.88;;
59790;SDS011;47431;51.640;5.554;2023-10-19T07:23:02;23.70;;;8.02;;
59790;SDS011;47431;51.640;5.554;2023-10-19T07:25:33;19.30;;;5.95;;
59790;SDS011;47431;51.640;5.554;2023-10-19T07:28:07;17.38;;;5.18;;
59790;SDS011;47431;51.640;5.554;2023-10-19T07:30:32;14.82;;;5.30;;
59790;SDS011;47431;51.640;5.554;2023-10-19T07:32:58;15.07;;;5.25;;
59790;SDS011;47431;51.640;5.554;2023-10-19T07:35:24;17.88;;;4.63;;
59790;SDS011;47431;51.640;5.554;2023-10-19T07:37:51;20.95;;;5.70;;
59790;SDS011;47431;51.640;5.554;2023-10-19T07:40:17;18.45;;;5.10;;
59790;SDS011;47431;51.640;5.554;2023-10-19T07:42:44;13.73;;;4.90;;
59790;SDS011;47431;51.640;5.554;2023-10-19T07:45:10;17.30;;;4.93;;
59790;SDS011;47431;51.640;5.554;2023-10-19T07:47:38;14.82;;;4.28;;
59790;SDS011;47431;51.640;5.554;2023-10-19T07:50:07;19.15;;;5.22;;
59790;SDS011;47431;51.640;5.554;2023-10-19T07:52:46;12.60;;;4.85;;
59790;SDS011;47431;51.640;5.554;2023-10-19T07:55:14;25.63;;;5.45;;
59790;SDS011;47431;51.640;5.554;2023-10-19T07:57:41;12.35;;;4.57;;
59790;SDS011;47431;51.640;5.554;2023-10-19T08:00:07;16.15;;;4.18;;
59790;SDS011;47431;51.640;5.554;2023-10-19T08:02:36;14.80;;;5.32;;
59790;SDS011;47431;51.640;5.554;2023-10-19T08:05:10;16.55;;;4.40;;
59790;SDS011;47431;51.640;5.554;2023-10-19T08:07:37;10.07;;;4.22;;
59790;SDS011;47431;51.640;5.554;2023-10-19T08:10:04;17.58;;;5.55;;
59790;SDS011;47431;51.640;5.554;2023-10-19T08:12:35;17.95;;;4.45;;
59790;SDS011;47431;51.640;5.554;2023-10-19T08:15:08;21.70;;;5.13;;
59790;SDS011;47431;51.640;5.554;2023-10-19T08:17:36;18.98;;;5.18;;
59790;SDS011;47431;51.640;5.554;2023-10-19T08:20:08;19.77;;;5.68;;
59790;SDS011;47431;51.640;5.554;2023-10-19T08:22:41;16.45;;;4.95;;
59790;SDS011;47431;51.640;5.554;2023-10-19T08:25:11;17.00;;;4.68;;
59790;SDS011;47431;51.640;5.554;2023-10-19T08:27:39;7.68;;;3.72;;
59790;SDS011;47431;51.640;5.554;2023-10-19T08:30:15;17.33;;;5.28;;
59790;SDS011;47431;51.640;5.554;2023-10-19T08:32:43;14.98;;;3.83;;
59790;SDS011;47431;51.640;5.554;2023-10-19T08:35:13;9.35;;;3.75;;
59790;SDS011;47431;51.640;5.554;2023-10-19T08:37:39;21.70;;;4.60;;
59790;SDS011;47431;51.640;5.554;2023-10-19T08:40:14;17.05;;;4.53;;
59790;SDS011;47431;51.640;5.554;2023-10-19T08:42:43;17.60;;;4.22;;
59790;SDS011;47431;51.640;5.554;2023-10-19T08:45:16;11.52;;;4.38;;
59790;SDS011;47431;51.640;5.554;2023-10-19T08:47:55;16.13;;;4.03;;
59790;SDS011;47431;51.640;5.554;2023-10-19T08:50:22;11.15;;;3.70;;
59790;SDS011;47431;51.640;5.554;2023-10-19T08:52:49;8.73;;;3.13;;
59790;SDS011;47431;51.640;5.554;2023-10-19T08:55:18;10.70;;;3.53;;
59790;SDS011;47431;51.640;5.554;2023-10-19T08:57:44;11.40;;;3.00;;
59790;SDS011;47431;51.640;5.554;2023-10-19T09:00:13;17.52;;;4.40;;
59790;SDS011;47431;51.640;5.554;2023-10-19T09:02:42;19.95;;;4.00;;
59790;SDS011;47431;51.640;5.554;2023-10-19T09:05:07;14.27;;;4.82;;
59790;SDS011;47431;51.640;5.554;2023-10-19T09:07:34;16.05;;;4.88;;
59790;SDS011;47431;51.640;5.554;2023-10-19T09:10:00;13.85;;;3.47;;
59790;SDS011;47431;51.640;5.554;2023-10-19T09:12:26;13.07;;;4.75;;
59790;SDS011;47431;51.640;5.554;2023-10-19T09:14:52;10.05;;;3.22;;
59790;SDS011;47431;51.640;5.554;2023-10-19T09:17:22;8.48;;;2.47;;
59790;SDS011;47431;51.640;5.554;2023-10-19T09:19:54;9.55;;;3.13;;
59790;SDS011;47431;51.640;5.554;2023-10-19T09:22:19;12.15;;;3.22;;
59790;SDS011;47431;51.640;5.554;2023-10-19T09:24:51;13.48;;;2.80;;
59790;SDS011;47431;51.640;5.554;2023-10-19T09:27:18;10.18;;;2.50;;
59790;SDS011;47431;51.640;5.554;2023-10-19T09:29:47;11.20;;;2.45;;
59790;SDS011;47431;51.640;5.554;2023-10-19T09:32:14;11.90;;;3.25;;
59790;SDS011;47431;51.640;5.554;2023-10-19T09:34:39;10.02;;;2.13;;
59790;SDS011;47431;51.640;5.554;2023-10-19T09:37:09;9.98;;;2.58;;
59790;SDS011;47431;51.640;5.554;2023-10-19T09:39:35;11.38;;;3.08;;
59790;SDS011;47431;51.640;5.554;2023-10-19T09:42:02;9.80;;;2.17;;
59790;SDS011;47431;51.640;5.554;2023-10-19T09:44:37;16.23;;;3.25;;
59790;SDS011;47431;51.640;5.554;2023-10-19T09:47:09;9.45;;;2.53;;
59790;SDS011;47431;51.640;5.554;2023-10-19T09:49:37;13.15;;;3.45;;
59790;SDS011;47431;51.640;5.554;2023-10-19T09:52:03;9.77;;;2.70;;
59790;SDS011;47431;51.640;5.554;2023-10-19T09:54:45;13.45;;;2.83;;
59790;SDS011;47431;51.640;5.554;2023-10-19T09:57:19;9.00;;;2.75;;
59790;SDS011;47431;51.640;5.554;2023-10-19T09:59:55;8.98;;;2.58;;
59790;SDS011;47431;51.640;5.554;2023-10-19T10:02:32;12.48;;;2.75;;
59790;SDS011;47431;51.640;5.554;2023-10-19T10:04:57;7.63;;;2.05;;
59790;SDS011;47431;51.640;5.554;2023-10-19T10:07:23;9.20;;;2.13;;
59790;SDS011;47431;51.640;5.554;2023-10-19T10:09:50;12.35;;;2.08;;
59790;SDS011;47431;51.640;5.554;2023-10-19T10:12:23;7.78;;;2.78;;
59790;SDS011;47431;51.640;5.554;2023-10-19T10:14:54;8.93;;;2.22;;
59790;SDS011;47431;51.640;5.554;2023-10-19T10:17:32;6.70;;;2.17;;
59790;SDS011;47431;51.640;5.554;2023-10-19T10:22:40;12.80;;;2.35;;
59790;SDS011;47431;51.640;5.554;2023-10-19T10:25:30;11.30;;;3.28;;
59790;SDS011;47431;51.640;5.554;2023-10-19T10:27:56;12.43;;;4.40;;
59790;SDS011;47431;51.640;5.554;2023-10-19T10:30:21;12.65;;;2.75;;
59790;SDS011;47431;51.640;5.554;2023-10-19T10:32:49;6.78;;;2.40;;
59790;SDS011;47431;51.640;5.554;2023-10-19T10:38:02;12.25;;;3.33;;
59790;SDS011;47431;51.640;5.554;2023-10-19T10:40:43;8.55;;;2.47;;
59790;SDS011;47431;51.640;5.554;2023-10-19T10:43:09;9.82;;;2.70;;
59790;SDS011;47431;51.640;5.554;2023-10-19T10:45:38;10.32;;;2.08;;
59790;SDS011;47431;51.640;5.554;2023-10-19T10:48:04;9.00;;;2.78;;
59790;SDS011;47431;51.640;5.554;2023-10-19T10:50:37;13.57;;;2.70;;
59790;SDS011;47431;51.640;5.554;2023-10-19T10:53:04;14.07;;;2.97;;
59790;SDS011;47431;51.640;5.554;2023-10-19T10:55:29;9.45;;;1.90;;
59790;SDS011;47431;51.640;5.554;2023-10-19T10:57:55;8.02;;;2.88;;
59790;SDS011;47431;51.640;5.554;2023-10-19T11:00:21;10.35;;;3.22;;
59790;SDS011;47431;51.640;5.554;2023-10-19T11:05:29;10.13;;;3.45;;
59790;SDS011;47431;51.640;5.554;2023-10-19T11:10:32;10.70;;;2.80;;
59790;SDS011;47431;51.640;5.554;2023-10-19T11:13:05;13.80;;;3.50;;
59790;SDS011;47431;51.640;5.554;2023-10-19T11:15:35;10.82;;;3.03;;
59790;SDS011;47431;51.640;5.554;2023-10-19T11:18:02;13.40;;;4.53;;
59790;SDS011;47431;51.640;5.554;2023-10-19T11:20:27;14.50;;;3.25;;
59790;SDS011;47431;51.640;5.554;2023-10-19T11:22:53;6.20;;;2.72;;
59790;SDS011;47431;51.640;5.554;2023-10-19T11:25:24;11.95;;;3.22;;
59790;SDS011;47431;51.640;5.554;2023-10-19T11:27:57;13.57;;;3.40;;
59790;SDS011;47431;51.640;5.554;2023-10-19T11:30:32;10.55;;;3.88;;
59790;SDS011;47431;51.640;5.554;2023-10-19T11:32:58;10.20;;;2.80;;
59790;SDS011;47431;51.640;5.554;2023-10-19T11:35:27;15.77;;;4.15;;
59790;SDS011;47431;51.640;5.554;2023-10-19T11:37:58;9.07;;;3.15;;
59790;SDS011;47431;51.640;5.554;2023-10-19T11:40:25;16.17;;;4.65;;
59790;SDS011;47431;51.640;5.554;2023-10-19T11:42:52;11.55;;;2.88;;
59790;SDS011;47431;51.640;5.554;2023-10-19T11:45:21;14.90;;;4.30;;
59790;SDS011;47431;51.640;5.554;2023-10-19T11:47:48;9.70;;;4.20;;
59790;SDS011;47431;51.640;5.554;2023-10-19T11:50:15;12.45;;;3.80;;
59790;SDS011;47431;51.640;5.554;2023-10-19T11:52:42;23.95;;;4.00;;
59790;SDS011;47431;51.640;5.554;2023-10-19T11:55:07;13.77;;;3.70;;
59790;SDS011;47431;51.640;5.554;2023-10-19T11:57:33;13.40;;;3.33;;
59790;SDS011;47431;51.640;5.554;2023-10-19T11:59:59;11.00;;;3.83;;
59790;SDS011;47431;51.640;5.554;2023-10-19T12:02:26;10.07;;;3.15;;
59790;SDS011;47431;51.640;5.554;2023-10-19T12:04:51;13.75;;;3.97;;
59790;SDS011;47431;51.640;5.554;2023-10-19T12:07:17;14.63;;;4.30;;
59790;SDS011;47431;51.640;5.554;2023-10-19T12:09:43;13.43;;;4.20;;
59790;SDS011;47431;51.640;5.554;2023-10-19T12:12:09;14.00;;;4.07;;
59790;SDS011;47431;51.640;5.554;2023-10-19T12:14:38;12.18;;;2.97;;
59790;SDS011;47431;51.640;5.554;2023-10-19T12:17:04;12.80;;;3.70;;
59790;SDS011;47431;51.640;5.554;2023-10-19T12:19:31;12.68;;;4.20;;
59790;SDS011;47431;51.640;5.554;2023-10-19T12:21:57;12.85;;;3.88;;
59790;SDS011;47431;51.640;5.554;2023-10-19T12:24:23;14.50;;;5.55;;
59790;SDS011;47431;51.640;5.554;2023-10-19T12:26:49;17.58;;;4.25;;
59790;SDS011;47431;51.640;5.554;2023-10-19T12:29:15;12.07;;;4.18;;
59790;SDS011;47431;51.640;5.554;2023-10-19T12:31:42;15.48;;;4.30;;
59790;SDS011;47431;51.640;5.554;2023-10-19T12:34:08;15.93;;;4.85;;
59790;SDS011;47431;51.640;5.554;2023-10-19T12:36:36;16.88;;;4.40;;
59790;SDS011;47431;51.640;5.554;2023-10-19T12:39:02;15.75;;;5.00;;
59790;SDS011;47431;51.640;5.554;2023-10-19T12:41:30;16.55;;;3.47;;
59790;SDS011;47431;51.640;5.554;2023-10-19T12:43:56;15.30;;;4.10;;
59790;SDS011;47431;51.640;5.554;2023-10-19T12:46:23;11.35;;;3.85;;
59790;SDS011;47431;51.640;5.554;2023-10-19T12:48:55;14.25;;;3.00;;
59790;SDS011;47431;51.640;5.554;2023-10-19T12:51:22;9.65;;;4.25;;
59790;SDS011;47431;51.640;5.554;2023-10-19T12:53:49;21.95;;;5.38;;
59790;SDS011;47431;51.640;5.554;2023-10-19T12:56:16;13.77;;;3.95;;
59790;SDS011;47431;51.640;5.554;2023-10-19T12:58:43;11.77;;;3.40;;
59790;SDS011;47431;51.640;5.554;2023-10-19T13:01:08;16.45;;;3.28;;
59790;SDS011;47431;51.640;5.554;2023-10-19T13:03:41;15.40;;;5.25;;
59790;SDS011;47431;51.640;5.554;2023-10-19T13:06:07;13.10;;;3.65;;
59790;SDS011;47431;51.640;5.554;2023-10-19T13:08:33;12.07;;;3.83;;
59790;SDS011;47431;51.640;5.554;2023-10-19T13:10:58;13.30;;;3.63;;
59790;SDS011;47431;51.640;5.554;2023-10-19T13:13:23;13.05;;;3.63;;
59790;SDS011;47431;51.640;5.554;2023-10-19T13:15:49;16.05;;;4.30;;
59790;SDS011;47431;51.640;5.554;2023-10-19T13:18:15;16.80;;;4.10;;
59790;SDS011;47431;51.640;5.554;2023-10-19T13:20:52;10.48;;;4.00;;
59790;SDS011;47431;51.640;5.554;2023-10-19T13:23:19;22.45;;;6.82;;
59790;SDS011;47431;51.640;5.554;2023-10-19T13:25:51;22.05;;;6.85;;
59790;SDS011;47431;51.640;5.554;2023-10-19T13:28:22;18.75;;;5.07;;
59790;SDS011;47431;51.640;5.554;2023-10-19T13:30:52;17.63;;;5.20;;
59790;SDS011;47431;51.640;5.554;2023-10-19T13:33:18;19.65;;;6.97;;
59790;SDS011;47431;51.640;5.554;2023-10-19T13:35:51;13.07;;;4.72;;
59790;SDS011;47431;51.640;5.554;2023-10-19T13:38:17;13.43;;;4.85;;
59790;SDS011;47431;51.640;5.554;2023-10-19T13:40:47;22.88;;;9.50;;
59790;SDS011;47431;51.640;5.554;2023-10-19T13:43:15;13.15;;;4.30;;
59790;SDS011;47431;51.640;5.554;2023-10-19T13:45:43;16.92;;;5.97;;
59790;SDS011;47431;51.640;5.554;2023-10-19T13:48:10;20.65;;;5.63;;
59790;SDS011;47431;51.640;5.554;2023-10-19T13:50:40;17.17;;;9.77;;
59790;SDS011;47431;51.640;5.554;2023-10-19T13:53:17;20.63;;;6.20;;
59790;SDS011;47431;51.640;5.554;2023-10-19T13:55:43;23.45;;;6.43;;
59790;SDS011;47431;51.640;5.554;2023-10-19T13:58:08;13.05;;;4.90;;
59790;SDS011;47431;51.640;5.554;2023-10-19T14:00:34;13.13;;;5.65;;
59790;SDS011;47431;51.640;5.554;2023-10-19T14:03:05;22.63;;;6.43;;
59790;SDS011;47431;51.640;5.554;2023-10-19T14:05:38;12.15;;;5.50;;
59790;SDS011;47431;51.640;5.554;2023-10-19T14:08:14;10.25;;;3.92;;
59790;SDS011;47431;51.640;5.554;2023-10-19T14:10:40;18.65;;;4.85;;
59790;SDS011;47431;51.640;5.554;2023-10-19T14:13:07;20.38;;;5.75;;
59790;SDS011;47431;51.640;5.554;2023-10-19T14:15:33;17.67;;;4.97;;
59790;SDS011;47431;51.640;5.554;2023-10-19T14:17:59;15.40;;;5.65;;
59790;SDS011;47431;51.640;5.554;2023-10-19T14:20:27;15.80;;;4.35;;
59790;SDS011;47431;51.640;5.554;2023-10-19T14:22:54;13.90;;;4.28;;
59790;SDS011;47431;51.640;5.554;2023-10-19T14:25:19;19.20;;;4.80;;
59790;SDS011;47431;51.640;5.554;2023-10-19T14:27:48;18.10;;;4.22;;
59790;SDS011;47431;51.640;5.554;2023-10-19T14:30:15;11.63;;;4.88;;
59790;SDS011;47431;51.640;5.554;2023-10-19T14:32:43;13.48;;;4.03;;
59790;SDS011;47431;51.640;5.554;2023-10-19T14:35:10;14.20;;;5.20;;
59790;SDS011;47431;51.640;5.554;2023-10-19T14:37:40;13.63;;;4.82;;
59790;SDS011;47431;51.640;5.554;2023-10-19T14:40:14;10.85;;;4.72;;
59790;SDS011;47431;51.640;5.554;2023-10-19T14:42:42;12.32;;;4.75;;
59790;SDS011;47431;51.640;5.554;2023-10-19T14:45:08;11.90;;;4.70;;
59790;SDS011;47431;51.640;5.554;2023-10-19T14:47:36;13.85;;;5.53;;
59790;SDS011;47431;51.640;5.554;2023-10-19T14:50:11;14.30;;;4.72;;
59790;SDS011;47431;51.640;5.554;2023-10-19T14:52:38;18.10;;;5.32;;
59790;SDS011;47431;51.640;5.554;2023-10-19T14:55:10;18.38;;;5.85;;
59790;SDS011;47431;51.640;5.554;2023-10-19T14:57:37;19.27;;;6.03;;